sensor_id;sensor_type;location;lat;lon;timestamp;P1;durP1;ratioP1;P2;durP2;ratioP2
19830;SDS011;10076;52.008;4.708;2022-12-08T00:01:05;0.30;;;0.30;;
19830;SDS011;10076;52.008;4.708;2022-12-08T00:03:31;0.50;;;0.50;;
19830;SDS011;10076;52.008;4.708;2022-12-08T00:05:56;0.37;;;0.37;;
19830;SDS011;10076;52.008;4.708;2022-12-08T00:08:40;0.20;;;0.20;;
19830;SDS011;10076;52.008;4.708;2022-12-08T00:11:24;0.50;;;0.50;;
19830;SDS011;10076;52.008;4.708;2022-12-08T00:13:50;0.30;;;0.30;;
19830;SDS011;10076;52.008;4.708;2022-12-08T00:16:15;0.40;;;0.40;;
19830;SDS011;10076;52.008;4.708;2022-12-08T00:18:40;0.30;;;0.30;;
19830;SDS011;10076;52.008;4.708;2022-12-08T00:21:06;0.63;;;0.63;;
19830;SDS011;10076;52.008;4.708;2022-12-08T00:23:31;3.90;;;0.40;;
19830;SDS011;10076;52.008;4.708;2022-12-08T00:26:00;0.43;;;0.43;;
19830;SDS011;10076;52.008;4.708;2022-12-08T00:28:26;0.30;;;0.30;;
19830;SDS011;10076;52.008;4.708;2022-12-08T00:30:51;1.80;;;0.73;;
19830;SDS011;10076;52.008;4.708;2022-12-08T00:33:16;0.93;;;0.80;;
19830;SDS011;10076;52.008;4.708;2022-12-08T00:35:42;1.50;;;1.03;;
19830;SDS011;10076;52.008;4.708;2022-12-08T00:38:07;1.10;;;1.00;;
19830;SDS011;10076;52.008;4.708;2022-12-08T00:40:32;1.40;;;1.30;;
19830;SDS011;10076;52.008;4.708;2022-12-08T00:42:57;3.07;;;1.73;;
19830;SDS011;10076;52.008;4.708;2022-12-08T00:45:23;1.87;;;1.17;;
19830;SDS011;10076;52.008;4.708;2022-12-08T00:47:48;2.43;;;1.70;;
19830;SDS011;10076;52.008;4.708;2022-12-08T00:50:13;1.90;;;1.63;;
19830;SDS011;10076;52.008;4.708;2022-12-08T00:52:39;2.77;;;1.97;;
19830;SDS011;10076;52.008;4.708;2022-12-08T00:55:04;1.77;;;1.40;;
19830;SDS011;10076;52.008;4.708;2022-12-08T00:57:29;4.73;;;2.20;;
19830;SDS011;10076;52.008;4.708;2022-12-08T00:59:55;2.57;;;2.10;;
19830;SDS011;10076;52.008;4.708;2022-12-08T01:02:21;2.30;;;1.90;;
19830;SDS011;10076;52.008;4.708;2022-12-08T01:04:46;4.57;;;1.67;;
19830;SDS011;10076;52.008;4.708;2022-12-08T01:07:12;2.20;;;1.80;;
19830;SDS011;10076;52.008;4.708;2022-12-08T01:09:37;2.23;;;1.67;;
19830;SDS011;10076;52.008;4.708;2022-12-08T01:12:02;2.50;;;1.77;;
19830;SDS011;10076;52.008;4.708;2022-12-08T01:14:28;1.40;;;1.30;;
19830;SDS011;10076;52.008;4.708;2022-12-08T01:16:53;2.67;;;1.50;;
19830;SDS011;10076;52.008;4.708;2022-12-08T01:19:19;1.73;;;1.63;;
19830;SDS011;10076;52.008;4.708;2022-12-08T01:21:44;2.33;;;1.70;;
19830;SDS011;10076;52.008;4.708;2022-12-08T01:24:10;1.80;;;1.23;;
19830;SDS011;10076;52.008;4.708;2022-12-08T01:26:40;1.40;;;1.30;;
19830;SDS011;10076;52.008;4.708;2022-12-08T01:29:06;1.90;;;1.40;;
19830;SDS011;10076;52.008;4.708;2022-12-08T01:31:32;1.40;;;1.30;;
19830;SDS011;10076;52.008;4.708;2022-12-08T01:33:57;1.00;;;0.80;;
19830;SDS011;10076;52.008;4.708;2022-12-08T01:36:27;2.40;;;0.90;;
19830;SDS011;10076;52.008;4.708;2022-12-08T01:38:55;0.97;;;0.63;;
19830;SDS011;10076;52.008;4.708;2022-12-08T01:41:23;1.97;;;1.00;;
19830;SDS011;10076;52.008;4.708;2022-12-08T01:43:54;0.73;;;0.70;;
19830;SDS011;10076;52.008;4.708;2022-12-08T01:46:25;0.80;;;0.80;;
19830;SDS011;10076;52.008;4.708;2022-12-08T01:48:53;0.70;;;0.70;;
19830;SDS011;10076;52.008;4.708;2022-12-08T01:51:25;1.70;;;0.50;;
19830;SDS011;10076;52.008;4.708;2022-12-08T01:53:51;0.93;;;0.80;;
19830;SDS011;10076;52.008;4.708;2022-12-08T01:56:19;1.37;;;0.80;;
19830;SDS011;10076;52.008;4.708;2022-12-08T01:58:51;1.30;;;0.90;;
19830;SDS011;10076;52.008;4.708;2022-12-08T02:01:19;3.23;;;1.00;;
19830;SDS011;10076;52.008;4.708;2022-12-08T02:03:46;1.53;;;1.10;;
19830;SDS011;10076;52.008;4.708;2022-12-08T02:06:15;0.77;;;0.77;;
19830;SDS011;10076;52.008;4.708;2022-12-08T02:08:42;0.73;;;0.73;;
19830;SDS011;10076;52.008;4.708;2022-12-08T02:11:10;1.23;;;1.00;;
19830;SDS011;10076;52.008;4.708;2022-12-08T02:13:36;0.90;;;0.80;;
19830;SDS011;10076;52.008;4.708;2022-12-08T02:21:21;1.73;;;1.07;;
19830;SDS011;10076;52.008;4.708;2022-12-08T02:32:20;1.20;;;1.10;;
19830;SDS011;10076;52.008;4.708;2022-12-08T02:37:42;3.50;;;1.47;;
19830;SDS011;10076;52.008;4.708;2022-12-08T02:40:25;1.83;;;1.50;;
19830;SDS011;10076;52.008;4.708;2022-12-08T02:43:15;1.37;;;1.27;;
19830;SDS011;10076;52.008;4.708;2022-12-08T02:45:51;1.50;;;1.37;;
19830;SDS011;10076;52.008;4.708;2022-12-08T02:48:24;1.43;;;1.33;;
19830;SDS011;10076;52.008;4.708;2022-12-08T02:50:52;1.53;;;1.43;;
19830;SDS011;10076;52.008;4.708;2022-12-08T02:53:17;2.67;;;0.97;;
19830;SDS011;10076;52.008;4.708;2022-12-08T02:55:50;1.83;;;1.00;;
19830;SDS011;10076;52.008;4.708;2022-12-08T03:01:08;0.63;;;0.63;;
19830;SDS011;10076;52.008;4.708;2022-12-08T03:06:34;0.30;;;0.30;;
19830;SDS011;10076;52.008;4.708;2022-12-08T03:09:57;1.83;;;0.60;;
19830;SDS011;10076;52.008;4.708;2022-12-08T03:12:18;0.30;;;0.30;;
19830;SDS011;10076;52.008;4.708;2022-12-08T03:14:51;0.30;;;0.30;;
19830;SDS011;10076;52.008;4.708;2022-12-08T03:17:21;0.20;;;0.20;;
19830;SDS011;10076;52.008;4.708;2022-12-08T03:19:50;0.30;;;0.30;;
19830;SDS011;10076;52.008;4.708;2022-12-08T03:22:18;0.40;;;0.40;;
19830;SDS011;10076;52.008;4.708;2022-12-08T03:24:48;0.20;;;0.20;;
19830;SDS011;10076;52.008;4.708;2022-12-08T03:27:15;0.63;;;0.37;;
19830;SDS011;10076;52.008;4.708;2022-12-08T03:29:44;1.17;;;0.50;;
19830;SDS011;10076;52.008;4.708;2022-12-08T03:32:14;0.30;;;0.30;;
19830;SDS011;10076;52.008;4.708;2022-12-08T03:34:47;5.20;;;0.43;;
19830;SDS011;10076;52.008;4.708;2022-12-08T03:37:14;0.43;;;0.40;;
19830;SDS011;10076;52.008;4.708;2022-12-08T03:39:40;0.73;;;0.27;;
19830;SDS011;10076;52.008;4.708;2022-12-08T03:42:05;0.40;;;0.40;;
19830;SDS011;10076;52.008;4.708;2022-12-08T03:44:30;0.50;;;0.50;;
19830;SDS011;10076;52.008;4.708;2022-12-08T03:46:56;0.37;;;0.37;;
19830;SDS011;10076;52.008;4.708;2022-12-08T03:49:21;1.83;;;0.40;;
19830;SDS011;10076;52.008;4.708;2022-12-08T03:51:46;0.30;;;0.30;;
19830;SDS011;10076;52.008;4.708;2022-12-08T03:54:12;0.40;;;0.40;;
19830;SDS011;10076;52.008;4.708;2022-12-08T03:56:37;3.63;;;0.40;;
19830;SDS011;10076;52.008;4.708;2022-12-08T03:59:03;1.53;;;0.40;;
19830;SDS011;10076;52.008;4.708;2022-12-08T04:01:30;4.17;;;0.47;;
19830;SDS011;10076;52.008;4.708;2022-12-08T04:03:55;0.30;;;0.30;;
19830;SDS011;10076;52.008;4.708;2022-12-08T04:06:21;0.30;;;0.30;;
19830;SDS011;10076;52.008;4.708;2022-12-08T04:08:47;2.10;;;0.63;;
19830;SDS011;10076;52.008;4.708;2022-12-08T04:11:13;0.37;;;0.37;;
19830;SDS011;10076;52.008;4.708;2022-12-08T04:13:39;2.73;;;0.40;;
19830;SDS011;10076;52.008;4.708;2022-12-08T04:16:06;1.90;;;0.63;;
19830;SDS011;10076;52.008;4.708;2022-12-08T04:18:32;0.43;;;0.37;;
19830;SDS011;10076;52.008;4.708;2022-12-08T04:20:58;0.30;;;0.30;;
19830;SDS011;10076;52.008;4.708;2022-12-08T04:23:23;0.57;;;0.57;;
19830;SDS011;10076;52.008;4.708;2022-12-08T04:25:52;0.37;;;0.37;;
19830;SDS011;10076;52.008;4.708;2022-12-08T04:28:17;0.40;;;0.30;;
19830;SDS011;10076;52.008;4.708;2022-12-08T04:30:43;0.20;;;0.20;;
19830;SDS011;10076;52.008;4.708;2022-12-08T04:33:08;0.33;;;0.33;;
19830;SDS011;10076;52.008;4.708;2022-12-08T04:35:34;2.57;;;0.67;;
19830;SDS011;10076;52.008;4.708;2022-12-08T04:37:59;1.40;;;0.90;;
19830;SDS011;10076;52.008;4.708;2022-12-08T04:40:24;0.37;;;0.37;;
19830;SDS011;10076;52.008;4.708;2022-12-08T04:42:50;0.30;;;0.30;;
19830;SDS011;10076;52.008;4.708;2022-12-08T04:45:15;3.10;;;0.40;;
19830;SDS011;10076;52.008;4.708;2022-12-08T04:47:41;0.30;;;0.30;;
19830;SDS011;10076;52.008;4.708;2022-12-08T04:50:06;0.57;;;0.47;;
19830;SDS011;10076;52.008;4.708;2022-12-08T04:52:32;0.27;;;0.27;;
19830;SDS011;10076;52.008;4.708;2022-12-08T04:54:58;0.57;;;0.57;;
19830;SDS011;10076;52.008;4.708;2022-12-08T04:57:23;0.50;;;0.50;;
19830;SDS011;10076;52.008;4.708;2022-12-08T04:59:49;1.33;;;0.80;;
19830;SDS011;10076;52.008;4.708;2022-12-08T05:02:14;5.53;;;0.57;;
19830;SDS011;10076;52.008;4.708;2022-12-08T05:04:40;1.13;;;0.77;;
19830;SDS011;10076;52.008;4.708;2022-12-08T05:07:05;1.27;;;0.60;;
19830;SDS011;10076;52.008;4.708;2022-12-08T05:09:30;2.80;;;0.90;;
19830;SDS011;10076;52.008;4.708;2022-12-08T05:11:56;1.13;;;0.70;;
19830;SDS011;10076;52.008;4.708;2022-12-08T05:14:21;0.50;;;0.50;;
19830;SDS011;10076;52.008;4.708;2022-12-08T05:16:46;0.50;;;0.50;;
19830;SDS011;10076;52.008;4.708;2022-12-08T05:19:12;2.37;;;0.50;;
19830;SDS011;10076;52.008;4.708;2022-12-08T05:21:38;0.50;;;0.50;;
19830;SDS011;10076;52.008;4.708;2022-12-08T05:24:04;0.30;;;0.30;;
19830;SDS011;10076;52.008;4.708;2022-12-08T05:26:29;0.67;;;0.67;;
19830;SDS011;10076;52.008;4.708;2022-12-08T05:28:55;0.90;;;0.43;;
19830;SDS011;10076;52.008;4.708;2022-12-08T05:31:20;0.40;;;0.40;;
19830;SDS011;10076;52.008;4.708;2022-12-08T05:33:46;0.40;;;0.40;;
19830;SDS011;10076;52.008;4.708;2022-12-08T05:36:13;0.57;;;0.37;;
19830;SDS011;10076;52.008;4.708;2022-12-08T05:38:39;0.30;;;0.30;;
19830;SDS011;10076;52.008;4.708;2022-12-08T05:41:06;0.43;;;0.43;;
19830;SDS011;10076;52.008;4.708;2022-12-08T05:43:32;2.10;;;0.40;;
19830;SDS011;10076;52.008;4.708;2022-12-08T05:45:57;0.83;;;0.83;;
19830;SDS011;10076;52.008;4.708;2022-12-08T05:48:23;0.40;;;0.40;;
19830;SDS011;10076;52.008;4.708;2022-12-08T05:50:49;0.30;;;0.30;;
19830;SDS011;10076;52.008;4.708;2022-12-08T05:53:16;0.77;;;0.77;;
19830;SDS011;10076;52.008;4.708;2022-12-08T05:55:42;0.83;;;0.60;;
19830;SDS011;10076;52.008;4.708;2022-12-08T05:58:10;1.20;;;1.10;;
19830;SDS011;10076;52.008;4.708;2022-12-08T06:00:41;0.47;;;0.47;;
19830;SDS011;10076;52.008;4.708;2022-12-08T06:03:07;0.30;;;0.30;;
19830;SDS011;10076;52.008;4.708;2022-12-08T06:05:34;0.30;;;0.30;;
19830;SDS011;10076;52.008;4.708;2022-12-08T06:08:00;0.77;;;0.77;;
19830;SDS011;10076;52.008;4.708;2022-12-08T06:10:26;0.33;;;0.30;;
19830;SDS011;10076;52.008;4.708;2022-12-08T06:12:51;0.33;;;0.33;;
19830;SDS011;10076;52.008;4.708;2022-12-08T06:15:17;0.23;;;0.23;;
19830;SDS011;10076;52.008;4.708;2022-12-08T06:17:42;0.30;;;0.30;;
19830;SDS011;10076;52.008;4.708;2022-12-08T06:20:08;0.33;;;0.33;;
19830;SDS011;10076;52.008;4.708;2022-12-08T06:22:34;0.30;;;0.30;;
19830;SDS011;10076;52.008;4.708;2022-12-08T06:24:59;0.20;;;0.20;;
19830;SDS011;10076;52.008;4.708;2022-12-08T06:27:25;0.20;;;0.20;;
19830;SDS011;10076;52.008;4.708;2022-12-08T06:29:50;0.27;;;0.27;;
19830;SDS011;10076;52.008;4.708;2022-12-08T06:32:15;3.30;;;0.50;;
19830;SDS011;10076;52.008;4.708;2022-12-08T06:34:40;0.40;;;0.40;;
19830;SDS011;10076;52.008;4.708;2022-12-08T06:37:06;0.50;;;0.50;;
19830;SDS011;10076;52.008;4.708;2022-12-08T06:39:31;0.30;;;0.30;;
19830;SDS011;10076;52.008;4.708;2022-12-08T06:41:56;0.40;;;0.40;;
19830;SDS011;10076;52.008;4.708;2022-12-08T06:44:40;0.20;;;0.20;;
19830;SDS011;10076;52.008;4.708;2022-12-08T06:47:05;0.80;;;0.50;;
19830;SDS011;10076;52.008;4.708;2022-12-08T06:49:31;0.33;;;0.30;;
19830;SDS011;10076;52.008;4.708;2022-12-08T06:51:56;0.63;;;0.60;;
19830;SDS011;10076;52.008;4.708;2022-12-08T06:54:21;0.47;;;0.47;;
19830;SDS011;10076;52.008;4.708;2022-12-08T06:56:46;1.23;;;0.50;;
19830;SDS011;10076;52.008;4.708;2022-12-08T06:59:12;0.40;;;0.40;;
19830;SDS011;10076;52.008;4.708;2022-12-08T07:01:37;0.40;;;0.40;;
19830;SDS011;10076;52.008;4.708;2022-12-08T07:04:03;0.60;;;0.60;;
19830;SDS011;10076;52.008;4.708;2022-12-08T07:06:28;0.30;;;0.30;;
19830;SDS011;10076;52.008;4.708;2022-12-08T07:08:53;0.60;;;0.60;;
19830;SDS011;10076;52.008;4.708;2022-12-08T07:11:19;0.50;;;0.50;;
19830;SDS011;10076;52.008;4.708;2022-12-08T07:13:44;0.43;;;0.43;;
19830;SDS011;10076;52.008;4.708;2022-12-08T07:16:10;0.60;;;0.60;;
19830;SDS011;10076;52.008;4.708;2022-12-08T07:18:36;0.83;;;0.83;;
19830;SDS011;10076;52.008;4.708;2022-12-08T07:21:06;5.10;;;1.00;;
19830;SDS011;10076;52.008;4.708;2022-12-08T07:23:33;1.00;;;0.60;;
19830;SDS011;10076;52.008;4.708;2022-12-08T07:25:59;1.47;;;1.00;;
19830;SDS011;10076;52.008;4.708;2022-12-08T07:28:30;0.57;;;0.57;;
19830;SDS011;10076;52.008;4.708;2022-12-08T07:30:56;0.90;;;0.90;;
19830;SDS011;10076;52.008;4.708;2022-12-08T07:33:22;0.57;;;0.47;;
19830;SDS011;10076;52.008;4.708;2022-12-08T07:35:55;0.43;;;0.43;;
19830;SDS011;10076;52.008;4.708;2022-12-08T07:38:22;0.50;;;0.50;;
19830;SDS011;10076;52.008;4.708;2022-12-08T07:40:48;0.53;;;0.53;;
19830;SDS011;10076;52.008;4.708;2022-12-08T07:43:13;0.47;;;0.47;;
19830;SDS011;10076;52.008;4.708;2022-12-08T07:45:39;0.40;;;0.40;;
19830;SDS011;10076;52.008;4.708;2022-12-08T07:48:05;0.90;;;0.50;;
19830;SDS011;10076;52.008;4.708;2022-12-08T07:50:30;0.90;;;0.70;;
19830;SDS011;10076;52.008;4.708;2022-12-08T07:52:55;0.63;;;0.63;;
19830;SDS011;10076;52.008;4.708;2022-12-08T07:55:21;1.23;;;0.60;;
19830;SDS011;10076;52.008;4.708;2022-12-08T07:57:46;6.33;;;0.63;;
19830;SDS011;10076;52.008;4.708;2022-12-08T08:00:12;1.50;;;0.57;;
19830;SDS011;10076;52.008;4.708;2022-12-08T08:02:38;0.80;;;0.80;;
19830;SDS011;10076;52.008;4.708;2022-12-08T08:05:03;0.83;;;0.83;;
19830;SDS011;10076;52.008;4.708;2022-12-08T08:07:30;0.37;;;0.37;;
19830;SDS011;10076;52.008;4.708;2022-12-08T08:09:56;1.40;;;0.73;;
19830;SDS011;10076;52.008;4.708;2022-12-08T08:12:21;3.03;;;1.03;;
19830;SDS011;10076;52.008;4.708;2022-12-08T08:14:46;1.00;;;0.60;;
19830;SDS011;10076;52.008;4.708;2022-12-08T08:17:11;0.70;;;0.70;;
19830;SDS011;10076;52.008;4.708;2022-12-08T08:19:37;0.63;;;0.63;;
19830;SDS011;10076;52.008;4.708;2022-12-08T08:22:02;1.10;;;1.00;;
19830;SDS011;10076;52.008;4.708;2022-12-08T08:24:27;0.70;;;0.70;;
19830;SDS011;10076;52.008;4.708;2022-12-08T08:26:53;0.97;;;0.90;;
19830;SDS011;10076;52.008;4.708;2022-12-08T08:29:19;0.60;;;0.60;;
19830;SDS011;10076;52.008;4.708;2022-12-08T08:31:45;0.87;;;0.87;;
19830;SDS011;10076;52.008;4.708;2022-12-08T08:34:10;0.80;;;0.67;;
19830;SDS011;10076;52.008;4.708;2022-12-08T08:36:35;0.80;;;0.80;;
19830;SDS011;10076;52.008;4.708;2022-12-08T08:39:01;1.77;;;1.67;;
19830;SDS011;10076;52.008;4.708;2022-12-08T08:41:27;3.87;;;2.00;;
19830;SDS011;10076;52.008;4.708;2022-12-08T08:43:53;1.07;;;0.97;;
19830;SDS011;10076;52.008;4.708;2022-12-08T08:46:18;1.23;;;0.77;;
19830;SDS011;10076;52.008;4.708;2022-12-08T08:48:44;1.97;;;0.73;;
19830;SDS011;10076;52.008;4.708;2022-12-08T08:51:10;1.73;;;0.90;;
19830;SDS011;10076;52.008;4.708;2022-12-08T08:53:36;1.10;;;0.87;;
19830;SDS011;10076;52.008;4.708;2022-12-08T08:56:02;1.03;;;0.70;;
19830;SDS011;10076;52.008;4.708;2022-12-08T08:58:31;0.60;;;0.57;;
19830;SDS011;10076;52.008;4.708;2022-12-08T09:00:57;1.40;;;0.53;;
19830;SDS011;10076;52.008;4.708;2022-12-08T09:03:22;3.50;;;0.70;;
19830;SDS011;10076;52.008;4.708;2022-12-08T09:05:47;8.03;;;2.40;;
19830;SDS011;10076;52.008;4.708;2022-12-08T09:08:14;1.67;;;0.83;;
19830;SDS011;10076;52.008;4.708;2022-12-08T09:10:39;1.40;;;0.90;;
19830;SDS011;10076;52.008;4.708;2022-12-08T09:13:05;2.87;;;1.33;;
19830;SDS011;10076;52.008;4.708;2022-12-08T09:15:30;3.67;;;1.80;;
19830;SDS011;10076;52.008;4.708;2022-12-08T09:17:55;6.03;;;1.83;;
19830;SDS011;10076;52.008;4.708;2022-12-08T09:20:20;5.03;;;2.33;;
19830;SDS011;10076;52.008;4.708;2022-12-08T09:22:46;1.30;;;1.20;;
19830;SDS011;10076;52.008;4.708;2022-12-08T09:25:11;1.47;;;0.93;;
19830;SDS011;10076;52.008;4.708;2022-12-08T09:27:36;1.27;;;0.97;;
19830;SDS011;10076;52.008;4.708;2022-12-08T09:30:02;1.10;;;0.73;;
19830;SDS011;10076;52.008;4.708;2022-12-08T09:32:28;0.60;;;0.60;;
19830;SDS011;10076;52.008;4.708;2022-12-08T09:34:54;1.93;;;0.80;;
19830;SDS011;10076;52.008;4.708;2022-12-08T09:37:19;0.60;;;0.60;;
19830;SDS011;10076;52.008;4.708;2022-12-08T09:39:45;0.53;;;0.47;;
19830;SDS011;10076;52.008;4.708;2022-12-08T09:42:10;0.63;;;0.63;;
19830;SDS011;10076;52.008;4.708;2022-12-08T09:47:21;0.87;;;0.80;;
19830;SDS011;10076;52.008;4.708;2022-12-08T09:49:58;0.83;;;0.83;;
19830;SDS011;10076;52.008;4.708;2022-12-08T09:52:32;0.80;;;0.80;;
19830;SDS011;10076;52.008;4.708;2022-12-08T09:55:05;1.13;;;0.90;;
19830;SDS011;10076;52.008;4.708;2022-12-08T09:57:39;1.23;;;1.13;;
19830;SDS011;10076;52.008;4.708;2022-12-08T10:00:05;1.40;;;1.30;;
19830;SDS011;10076;52.008;4.708;2022-12-08T10:02:31;1.70;;;1.40;;
19830;SDS011;10076;52.008;4.708;2022-12-08T10:04:57;1.67;;;1.50;;
19830;SDS011;10076;52.008;4.708;2022-12-08T10:07:28;1.33;;;1.23;;
19830;SDS011;10076;52.008;4.708;2022-12-08T10:18:11;2.10;;;1.20;;
19830;SDS011;10076;52.008;4.708;2022-12-08T10:20:41;1.83;;;1.70;;
19830;SDS011;10076;52.008;4.708;2022-12-08T10:23:18;1.30;;;1.20;;
19830;SDS011;10076;52.008;4.708;2022-12-08T10:25:50;2.77;;;1.63;;
19830;SDS011;10076;52.008;4.708;2022-12-08T10:28:21;1.10;;;1.00;;
19830;SDS011;10076;52.008;4.708;2022-12-08T10:30:47;1.00;;;0.93;;
19830;SDS011;10076;52.008;4.708;2022-12-08T10:33:15;1.10;;;1.00;;
19830;SDS011;10076;52.008;4.708;2022-12-08T10:35:56;1.30;;;1.20;;
19830;SDS011;10076;52.008;4.708;2022-12-08T10:38:30;1.40;;;1.30;;
19830;SDS011;10076;52.008;4.708;2022-12-08T10:41:02;1.30;;;1.10;;
19830;SDS011;10076;52.008;4.708;2022-12-08T10:43:28;1.47;;;1.20;;
19830;SDS011;10076;52.008;4.708;2022-12-08T10:45:54;3.07;;;1.60;;
19830;SDS011;10076;52.008;4.708;2022-12-08T10:48:32;1.40;;;1.30;;
19830;SDS011;10076;52.008;4.708;2022-12-08T10:50:58;1.67;;;1.20;;
19830;SDS011;10076;52.008;4.708;2022-12-08T10:58:26;1.43;;;1.33;;
19830;SDS011;10076;52.008;4.708;2022-12-08T11:00:52;1.17;;;1.07;;
19830;SDS011;10076;52.008;4.708;2022-12-08T11:03:30;1.50;;;1.40;;
19830;SDS011;10076;52.008;4.708;2022-12-08T11:05:59;1.30;;;1.20;;
19830;SDS011;10076;52.008;4.708;2022-12-08T11:08:33;1.60;;;1.17;;
19830;SDS011;10076;52.008;4.708;2022-12-08T11:11:08;0.70;;;0.60;;
19830;SDS011;10076;52.008;4.708;2022-12-08T11:13:36;0.60;;;0.60;;
19830;SDS011;10076;52.008;4.708;2022-12-08T11:16:05;0.60;;;0.60;;
19830;SDS011;10076;52.008;4.708;2022-12-08T11:18:39;0.67;;;0.67;;
19830;SDS011;10076;52.008;4.708;2022-12-08T11:21:10;1.27;;;0.60;;
19830;SDS011;10076;52.008;4.708;2022-12-08T11:23:38;3.23;;;1.43;;
19830;SDS011;10076;52.008;4.708;2022-12-08T11:26:11;0.63;;;0.63;;
19830;SDS011;10076;52.008;4.708;2022-12-08T11:28:44;0.60;;;0.60;;
19830;SDS011;10076;52.008;4.708;2022-12-08T11:31:14;1.13;;;0.97;;
19830;SDS011;10076;52.008;4.708;2022-12-08T11:33:45;2.43;;;0.90;;
19830;SDS011;10076;52.008;4.708;2022-12-08T11:36:11;0.80;;;0.80;;
19830;SDS011;10076;52.008;4.708;2022-12-08T11:38:40;0.93;;;0.90;;
19830;SDS011;10076;52.008;4.708;2022-12-08T11:41:09;1.17;;;0.77;;
19830;SDS011;10076;52.008;4.708;2022-12-08T11:49:24;2.00;;;0.80;;
19830;SDS011;10076;52.008;4.708;2022-12-08T11:52:31;0.93;;;0.80;;
19830;SDS011;10076;52.008;4.708;2022-12-08T11:57:21;1.27;;;0.97;;
19830;SDS011;10076;52.008;4.708;2022-12-08T11:59:51;1.60;;;0.90;;
19830;SDS011;10076;52.008;4.708;2022-12-08T12:02:24;1.53;;;1.17;;
19830;SDS011;10076;52.008;4.708;2022-12-08T12:10:24;0.73;;;0.70;;
19830;SDS011;10076;52.008;4.708;2022-12-08T12:13:06;5.67;;;1.63;;
19830;SDS011;10076;52.008;4.708;2022-12-08T12:21:35;1.90;;;0.67;;
19830;SDS011;10076;52.008;4.708;2022-12-08T12:23:48;0.63;;;0.60;;
19830;SDS011;10076;52.008;4.708;2022-12-08T12:26:20;0.57;;;0.33;;
19830;SDS011;10076;52.008;4.708;2022-12-08T12:28:49;0.80;;;0.40;;
19830;SDS011;10076;52.008;4.708;2022-12-08T12:31:25;0.70;;;0.70;;
19830;SDS011;10076;52.008;4.708;2022-12-08T12:33:56;1.23;;;0.77;;
19830;SDS011;10076;52.008;4.708;2022-12-08T12:36:49;0.50;;;0.50;;
19830;SDS011;10076;52.008;4.708;2022-12-08T12:39:22;6.90;;;1.10;;
19830;SDS011;10076;52.008;4.708;2022-12-08T12:42:00;0.40;;;0.40;;
19830;SDS011;10076;52.008;4.708;2022-12-08T12:46:53;0.40;;;0.40;;
19830;SDS011;10076;52.008;4.708;2022-12-08T13:04:42;2.10;;;0.90;;
19830;SDS011;10076;52.008;4.708;2022-12-08T13:07:22;0.70;;;0.67;;
19830;SDS011;10076;52.008;4.708;2022-12-08T13:12:42;1.97;;;0.90;;
19830;SDS011;10076;52.008;4.708;2022-12-08T13:15:16;3.87;;;1.20;;
19830;SDS011;10076;52.008;4.708;2022-12-08T13:17:44;1.77;;;0.90;;
19830;SDS011;10076;52.008;4.708;2022-12-08T13:20:19;1.37;;;0.97;;
19830;SDS011;10076;52.008;4.708;2022-12-08T13:22:49;2.23;;;1.20;;
19830;SDS011;10076;52.008;4.708;2022-12-08T13:30:42;3.17;;;1.10;;
19830;SDS011;10076;52.008;4.708;2022-12-08T13:33:32;1.33;;;1.00;;
19830;SDS011;10076;52.008;4.708;2022-12-08T13:38:35;4.93;;;1.30;;
19830;SDS011;10076;52.008;4.708;2022-12-08T13:41:04;1.60;;;0.93;;
19830;SDS011;10076;52.008;4.708;2022-12-08T13:46:30;2.10;;;0.97;;
19830;SDS011;10076;52.008;4.708;2022-12-08T13:49:06;1.20;;;1.10;;
19830;SDS011;10076;52.008;4.708;2022-12-08T13:51:39;2.77;;;0.90;;
19830;SDS011;10076;52.008;4.708;2022-12-08T13:54:09;1.00;;;0.80;;
19830;SDS011;10076;52.008;4.708;2022-12-08T13:56:44;3.80;;;1.17;;
19830;SDS011;10076;52.008;4.708;2022-12-08T14:01:44;0.70;;;0.70;;
19830;SDS011;10076;52.008;4.708;2022-12-08T14:04:17;3.90;;;1.40;;
19830;SDS011;10076;52.008;4.708;2022-12-08T14:06:45;2.20;;;1.40;;
19830;SDS011;10076;52.008;4.708;2022-12-08T14:09:15;3.80;;;1.33;;
19830;SDS011;10076;52.008;4.708;2022-12-08T14:11:43;1.10;;;1.00;;
19830;SDS011;10076;52.008;4.708;2022-12-08T14:14:23;0.97;;;0.70;;
19830;SDS011;10076;52.008;4.708;2022-12-08T14:16:55;1.77;;;1.00;;
19830;SDS011;10076;52.008;4.708;2022-12-08T14:19:25;2.47;;;1.27;;
19830;SDS011;10076;52.008;4.708;2022-12-08T14:22:12;1.23;;;0.93;;
19830;SDS011;10076;52.008;4.708;2022-12-08T14:24:44;2.10;;;1.00;;
19830;SDS011;10076;52.008;4.708;2022-12-08T14:27:15;1.00;;;1.00;;
19830;SDS011;10076;52.008;4.708;2022-12-08T14:29:43;0.80;;;0.80;;
19830;SDS011;10076;52.008;4.708;2022-12-08T14:32:25;6.07;;;0.90;;
19830;SDS011;10076;52.008;4.708;2022-12-08T14:34:52;2.07;;;1.27;;
19830;SDS011;10076;52.008;4.708;2022-12-08T14:37:18;1.00;;;0.90;;
19830;SDS011;10076;52.008;4.708;2022-12-08T14:39:44;0.80;;;0.80;;
19830;SDS011;10076;52.008;4.708;2022-12-08T14:42:18;0.70;;;0.63;;
19830;SDS011;10076;52.008;4.708;2022-12-08T14:44:47;0.40;;;0.40;;
19830;SDS011;10076;52.008;4.708;2022-12-08T14:47:16;0.40;;;0.40;;
19830;SDS011;10076;52.008;4.708;2022-12-08T14:49:44;1.27;;;1.17;;
19830;SDS011;10076;52.008;4.708;2022-12-08T14:52:11;0.70;;;0.70;;
19830;SDS011;10076;52.008;4.708;2022-12-08T14:54:38;0.70;;;0.70;;
19830;SDS011;10076;52.008;4.708;2022-12-08T14:57:08;0.63;;;0.63;;
19830;SDS011;10076;52.008;4.708;2022-12-08T14:59:37;0.60;;;0.60;;
19830;SDS011;10076;52.008;4.708;2022-12-08T15:02:08;0.70;;;0.70;;
19830;SDS011;10076;52.008;4.708;2022-12-08T15:04:37;0.70;;;0.70;;
19830;SDS011;10076;52.008;4.708;2022-12-08T15:07:06;0.60;;;0.60;;
19830;SDS011;10076;52.008;4.708;2022-12-08T15:09:38;1.03;;;1.00;;
19830;SDS011;10076;52.008;4.708;2022-12-08T15:14:39;2.27;;;0.93;;
19830;SDS011;10076;52.008;4.708;2022-12-08T15:20:33;0.77;;;0.77;;
19830;SDS011;10076;52.008;4.708;2022-12-08T15:23:03;0.97;;;0.93;;
19830;SDS011;10076;52.008;4.708;2022-12-08T15:25:29;0.60;;;0.60;;
19830;SDS011;10076;52.008;4.708;2022-12-08T15:27:55;3.07;;;0.93;;
19830;SDS011;10076;52.008;4.708;2022-12-08T15:30:22;0.70;;;0.70;;
19830;SDS011;10076;52.008;4.708;2022-12-08T15:32:50;1.00;;;0.77;;
19830;SDS011;10076;52.008;4.708;2022-12-08T15:35:16;1.80;;;1.07;;
19830;SDS011;10076;52.008;4.708;2022-12-08T15:37:42;0.40;;;0.40;;
19830;SDS011;10076;52.008;4.708;2022-12-08T15:40:19;3.17;;;1.37;;
19830;SDS011;10076;52.008;4.708;2022-12-08T15:42:47;1.20;;;1.10;;
19830;SDS011;10076;52.008;4.708;2022-12-08T15:45:13;0.77;;;0.77;;
19830;SDS011;10076;52.008;4.708;2022-12-08T15:47:39;0.70;;;0.70;;
19830;SDS011;10076;52.008;4.708;2022-12-08T15:50:06;1.60;;;1.50;;
19830;SDS011;10076;52.008;4.708;2022-12-08T15:52:38;0.70;;;0.70;;
19830;SDS011;10076;52.008;4.708;2022-12-08T15:55:03;3.80;;;0.80;;
19830;SDS011;10076;52.008;4.708;2022-12-08T15:57:29;0.63;;;0.63;;
19830;SDS011;10076;52.008;4.708;2022-12-08T15:59:56;0.60;;;0.60;;
19830;SDS011;10076;52.008;4.708;2022-12-08T16:02:21;3.53;;;0.67;;
19830;SDS011;10076;52.008;4.708;2022-12-08T16:04:46;0.63;;;0.63;;
19830;SDS011;10076;52.008;4.708;2022-12-08T16:07:33;0.50;;;0.50;;
19830;SDS011;10076;52.008;4.708;2022-12-08T16:10:01;0.80;;;0.60;;
19830;SDS011;10076;52.008;4.708;2022-12-08T16:12:27;0.60;;;0.60;;
19830;SDS011;10076;52.008;4.708;2022-12-08T16:15:12;0.40;;;0.40;;
19830;SDS011;10076;52.008;4.708;2022-12-08T16:17:37;1.93;;;0.70;;
19830;SDS011;10076;52.008;4.708;2022-12-08T16:20:11;0.60;;;0.60;;
19830;SDS011;10076;52.008;4.708;2022-12-08T16:22:38;0.67;;;0.67;;
19830;SDS011;10076;52.008;4.708;2022-12-08T16:25:04;1.13;;;0.73;;
19830;SDS011;10076;52.008;4.708;2022-12-08T16:27:31;0.50;;;0.50;;
19830;SDS011;10076;52.008;4.708;2022-12-08T16:29:59;0.57;;;0.57;;
19830;SDS011;10076;52.008;4.708;2022-12-08T16:32:25;3.30;;;0.80;;